sensor_id;sensor_type;location;lat;lon;timestamp;temperature;humidity
6256;DHT22;3161;48.794;9.784;2022-12-18T00:01:24;-7.90;99.90
6256;DHT22;3161;48.794;9.784;2022-12-18T00:03:53;-7.90;99.90
6256;DHT22;3161;48.794;9.784;2022-12-18T00:06:23;-7.90;99.90
6256;DHT22;3161;48.794;9.784;2022-12-18T00:08:51;-7.90;99.90
6256;DHT22;3161;48.794;9.784;2022-12-18T00:11:21;-8.00;99.90
6256;DHT22;3161;48.794;9.784;2022-12-18T00:13:49;-7.90;99.90
6256;DHT22;3161;48.794;9.784;2022-12-18T00:16:19;-7.90;99.90
6256;DHT22;3161;48.794;9.784;2022-12-18T00:18:49;-7.90;99.90
6256;DHT22;3161;48.794;9.784;2022-12-18T00:21:19;-7.90;99.90
6256;DHT22;3161;48.794;9.784;2022-12-18T00:23:47;-8.00;99.90
6256;DHT22;3161;48.794;9.784;2022-12-18T00:26:18;-8.00;99.90
6256;DHT22;3161;48.794;9.784;2022-12-18T00:28:46;-8.00;99.90
6256;DHT22;3161;48.794;9.784;2022-12-18T00:31:17;-8.10;99.90
6256;DHT22;3161;48.794;9.784;2022-12-18T00:33:45;-8.00;99.90
6256;DHT22;3161;48.794;9.784;2022-12-18T00:36:22;-8.00;99.90
6256;DHT22;3161;48.794;9.784;2022-12-18T00:38:50;-8.00;99.90
6256;DHT22;3161;48.794;9.784;2022-12-18T00:41:18;-8.00;99.90
6256;DHT22;3161;48.794;9.784;2022-12-18T00:44:05;-8.10;99.90
6256;DHT22;3161;48.794;9.784;2022-12-18T00:46:33;-8.10;99.90
6256;DHT22;3161;48.794;9.784;2022-12-18T00:49:01;-8.10;99.90
6256;DHT22;3161;48.794;9.784;2022-12-18T00:51:30;-8.10;99.90
6256;DHT22;3161;48.794;9.784;2022-12-18T00:53:57;-8.10;99.90
6256;DHT22;3161;48.794;9.784;2022-12-18T00:56:25;-8.10;99.90
6256;DHT22;3161;48.794;9.784;2022-12-18T00:58:52;-8.10;99.90
6256;DHT22;3161;48.794;9.784;2022-12-18T01:01:20;-8.00;99.90
6256;DHT22;3161;48.794;9.784;2022-12-18T01:03:48;-8.00;99.90
6256;DHT22;3161;48.794;9.784;2022-12-18T01:06:15;-8.00;99.90
6256;DHT22;3161;48.794;9.784;2022-12-18T01:08:44;-8.00;99.90
6256;DHT22;3161;48.794;9.784;2022-12-18T01:11:16;-8.00;99.90
6256;DHT22;3161;48.794;9.784;2022-12-18T01:13:44;-8.00;99.90
6256;DHT22;3161;48.794;9.784;2022-12-18T01:16:13;-8.10;99.90
6256;DHT22;3161;48.794;9.784;2022-12-18T01:18:41;-8.10;99.90
6256;DHT22;3161;48.794;9.784;2022-12-18T01:21:12;-8.10;99.90
6256;DHT22;3161;48.794;9.784;2022-12-18T01:23:40;-8.10;99.90
6256;DHT22;3161;48.794;9.784;2022-12-18T01:26:14;-8.20;99.90
6256;DHT22;3161;48.794;9.784;2022-12-18T01:28:39;-8.20;99.90
6256;DHT22;3161;48.794;9.784;2022-12-18T01:31:21;-8.20;99.90
6256;DHT22;3161;48.794;9.784;2022-12-18T01:33:50;-8.20;99.90
6256;DHT22;3161;48.794;9.784;2022-12-18T01:36:25;-8.20;99.90
6256;DHT22;3161;48.794;9.784;2022-12-18T01:38:49;-8.20;99.90
6256;DHT22;3161;48.794;9.784;2022-12-18T01:41:19;-8.20;99.90
6256;DHT22;3161;48.794;9.784;2022-12-18T01:43:50;-8.20;99.90
6256;DHT22;3161;48.794;9.784;2022-12-18T01:46:20;-8.20;99.90
6256;DHT22;3161;48.794;9.784;2022-12-18T01:48:50;-8.20;99.90
6256;DHT22;3161;48.794;9.784;2022-12-18T01:51:18;-8.10;99.90
6256;DHT22;3161;48.794;9.784;2022-12-18T01:53:47;-8.10;99.90
6256;DHT22;3161;48.794;9.784;2022-12-18T01:56:17;-8.10;99.90
6256;DHT22;3161;48.794;9.784;2022-12-18T01:58:56;-8.10;99.90
6256;DHT22;3161;48.794;9.784;2022-12-18T02:01:25;-8.10;99.90
6256;DHT22;3161;48.794;9.784;2022-12-18T02:03:53;-8.10;99.90
6256;DHT22;3161;48.794;9.784;2022-12-18T02:06:35;-8.10;99.90
6256;DHT22;3161;48.794;9.784;2022-12-18T02:09:09;-8.10;99.90
6256;DHT22;3161;48.794;9.784;2022-12-18T02:14:41;-8.20;99.90
6256;DHT22;3161;48.794;9.784;2022-12-18T02:17:11;-8.20;99.90
6256;DHT22;3161;48.794;9.784;2022-12-18T02:20:03;-8.20;99.90
6256;DHT22;3161;48.794;9.784;2022-12-18T02:22:40;-8.30;99.90
6256;DHT22;3161;48.794;9.784;2022-12-18T02:28:11;-8.30;99.90
6256;DHT22;3161;48.794;9.784;2022-12-18T02:30:40;-6.80;99.90
6256;DHT22;3161;48.794;9.784;2022-12-18T02:33:09;-8.30;99.90
6256;DHT22;3161;48.794;9.784;2022-12-18T02:35:40;-8.30;99.90
6256;DHT22;3161;48.794;9.784;2022-12-18T02:38:09;-8.30;99.90
6256;DHT22;3161;48.794;9.784;2022-12-18T02:40:38;-8.30;99.90
6256;DHT22;3161;48.794;9.784;2022-12-18T02:43:12;-8.30;99.90
6256;DHT22;3161;48.794;9.784;2022-12-18T02:45:52;-8.30;99.90
6256;DHT22;3161;48.794;9.784;2022-12-18T02:48:24;-8.20;99.90
6256;DHT22;3161;48.794;9.784;2022-12-18T02:50:58;-8.20;99.90
6256;DHT22;3161;48.794;9.784;2022-12-18T02:53:52;-8.10;99.90
6256;DHT22;3161;48.794;9.784;2022-12-18T02:56:23;-8.10;99.90
6256;DHT22;3161;48.794;9.784;2022-12-18T03:01:46;-8.20;99.90
6256;DHT22;3161;48.794;9.784;2022-12-18T03:04:16;-8.20;99.90
6256;DHT22;3161;48.794;9.784;2022-12-18T03:06:49;-8.20;99.90
6256;DHT22;3161;48.794;9.784;2022-12-18T03:09:22;-8.20;99.90
6256;DHT22;3161;48.794;9.784;2022-12-18T03:11:53;-8.10;99.90
6256;DHT22;3161;48.794;9.784;2022-12-18T03:14:38;-8.10;99.90
6256;DHT22;3161;48.794;9.784;2022-12-18T03:17:12;-8.00;99.90
6256;DHT22;3161;48.794;9.784;2022-12-18T03:19:42;-8.00;99.90
6256;DHT22;3161;48.794;9.784;2022-12-18T03:22:13;-8.00;99.90
6256;DHT22;3161;48.794;9.784;2022-12-18T03:24:43;-8.10;99.90
6256;DHT22;3161;48.794;9.784;2022-12-18T03:27:14;-8.00;99.90
6256;DHT22;3161;48.794;9.784;2022-12-18T03:29:55;-7.90;99.90
6256;DHT22;3161;48.794;9.784;2022-12-18T03:32:24;-8.10;99.90
6256;DHT22;3161;48.794;9.784;2022-12-18T03:34:54;-8.10;99.90
6256;DHT22;3161;48.794;9.784;2022-12-18T03:37:23;-8.10;99.90
6256;DHT22;3161;48.794;9.784;2022-12-18T03:39:50;-8.10;99.90
6256;DHT22;3161;48.794;9.784;2022-12-18T03:42:45;-8.20;99.90
6256;DHT22;3161;48.794;9.784;2022-12-18T03:45:36;-8.10;99.90
6256;DHT22;3161;48.794;9.784;2022-12-18T03:48:14;-8.20;99.90
6256;DHT22;3161;48.794;9.784;2022-12-18T03:50:55;-8.20;99.90
6256;DHT22;3161;48.794;9.784;2022-12-18T03:53:41;-8.20;99.90
6256;DHT22;3161;48.794;9.784;2022-12-18T03:56:08;-8.20;99.90
6256;DHT22;3161;48.794;9.784;2022-12-18T03:58:38;-8.20;99.90
6256;DHT22;3161;48.794;9.784;2022-12-18T04:01:07;-8.10;99.90
6256;DHT22;3161;48.794;9.784;2022-12-18T04:03:36;-8.10;99.90
6256;DHT22;3161;48.794;9.784;2022-12-18T04:06:05;-8.10;99.90
6256;DHT22;3161;48.794;9.784;2022-12-18T04:08:34;-8.10;99.90
6256;DHT22;3161;48.794;9.784;2022-12-18T04:11:02;-8.10;99.90
6256;DHT22;3161;48.794;9.784;2022-12-18T04:13:32;-8.20;99.90
6256;DHT22;3161;48.794;9.784;2022-12-18T04:16:01;-8.20;99.90
6256;DHT22;3161;48.794;9.784;2022-12-18T04:18:28;-8.30;99.90
6256;DHT22;3161;48.794;9.784;2022-12-18T04:20:56;-8.30;99.90
6256;DHT22;3161;48.794;9.784;2022-12-18T04:23:23;-8.30;99.90
6256;DHT22;3161;48.794;9.784;2022-12-18T04:25:51;-8.30;99.90
6256;DHT22;3161;48.794;9.784;2022-12-18T04:28:18;-8.40;99.90
6256;DHT22;3161;48.794;9.784;2022-12-18T04:30:49;-8.40;99.90
6256;DHT22;3161;48.794;9.784;2022-12-18T04:33:16;-8.40;99.90
6256;DHT22;3161;48.794;9.784;2022-12-18T04:35:44;-8.40;99.90
6256;DHT22;3161;48.794;9.784;2022-12-18T04:38:12;-8.40;99.90
6256;DHT22;3161;48.794;9.784;2022-12-18T04:40:39;-8.50;99.90
6256;DHT22;3161;48.794;9.784;2022-12-18T04:43:07;-8.40;99.90
6256;DHT22;3161;48.794;9.784;2022-12-18T04:45:34;-8.40;99.90
6256;DHT22;3161;48.794;9.784;2022-12-18T04:48:02;-8.50;99.90
6256;DHT22;3161;48.794;9.784;2022-12-18T04:50:31;-8.50;99.90
6256;DHT22;3161;48.794;9.784;2022-12-18T04:52:59;-8.50;99.90
6256;DHT22;3161;48.794;9.784;2022-12-18T04:55:27;-8.50;99.90
6256;DHT22;3161;48.794;9.784;2022-12-18T04:57:54;-8.50;99.90
6256;DHT22;3161;48.794;9.784;2022-12-18T05:00:22;-8.50;99.90
6256;DHT22;3161;48.794;9.784;2022-12-18T05:02:50;-8.50;99.90
6256;DHT22;3161;48.794;9.784;2022-12-18T05:05:17;-8.50;99.90
6256;DHT22;3161;48.794;9.784;2022-12-18T05:07:45;-8.60;99.90
6256;DHT22;3161;48.794;9.784;2022-12-18T05:10:12;-8.60;99.90
6256;DHT22;3161;48.794;9.784;2022-12-18T05:12:40;-8.60;99.90
6256;DHT22;3161;48.794;9.784;2022-12-18T05:15:09;-8.60;99.90
6256;DHT22;3161;48.794;9.784;2022-12-18T05:17:37;-8.60;99.90
6256;DHT22;3161;48.794;9.784;2022-12-18T05:20:04;-8.60;99.90
6256;DHT22;3161;48.794;9.784;2022-12-18T05:22:32;-8.60;99.90
6256;DHT22;3161;48.794;9.784;2022-12-18T05:25:00;-8.50;99.90
6256;DHT22;3161;48.794;9.784;2022-12-18T05:27:27;-8.50;99.90
6256;DHT22;3161;48.794;9.784;2022-12-18T05:29:55;-8.60;99.90
6256;DHT22;3161;48.794;9.784;2022-12-18T05:32:22;-8.50;99.90
6256;DHT22;3161;48.794;9.784;2022-12-18T05:34:50;-8.50;99.90
6256;DHT22;3161;48.794;9.784;2022-12-18T05:37:17;-8.50;99.90
6256;DHT22;3161;48.794;9.784;2022-12-18T05:39:45;-8.50;99.90
6256;DHT22;3161;48.794;9.784;2022-12-18T05:42:12;-8.60;99.90
6256;DHT22;3161;48.794;9.784;2022-12-18T05:44:39;-8.60;99.90
6256;DHT22;3161;48.794;9.784;2022-12-18T05:47:07;-8.60;99.90
6256;DHT22;3161;48.794;9.784;2022-12-18T05:49:34;-8.60;99.90
6256;DHT22;3161;48.794;9.784;2022-12-18T05:52:02;-8.60;99.90
6256;DHT22;3161;48.794;9.784;2022-12-18T05:54:30;-8.60;99.90
6256;DHT22;3161;48.794;9.784;2022-12-18T05:56:58;-8.60;99.90
6256;DHT22;3161;48.794;9.784;2022-12-18T05:59:26;-8.60;99.90
6256;DHT22;3161;48.794;9.784;2022-12-18T06:01:53;-8.60;99.90
6256;DHT22;3161;48.794;9.784;2022-12-18T06:04:21;-8.60;99.90
6256;DHT22;3161;48.794;9.784;2022-12-18T06:06:48;-8.60;99.90
6256;DHT22;3161;48.794;9.784;2022-12-18T06:09:16;-8.60;99.90
6256;DHT22;3161;48.794;9.784;2022-12-18T06:11:43;-8.60;99.90
6256;DHT22;3161;48.794;9.784;2022-12-18T06:14:11;-8.60;99.90
6256;DHT22;3161;48.794;9.784;2022-12-18T06:16:39;-8.60;99.90
6256;DHT22;3161;48.794;9.784;2022-12-18T06:19:06;-8.60;99.90
6256;DHT22;3161;48.794;9.784;2022-12-18T06:21:34;-8.60;99.90
6256;DHT22;3161;48.794;9.784;2022-12-18T06:24:02;-8.60;99.90
6256;DHT22;3161;48.794;9.784;2022-12-18T06:26:29;-8.60;99.90
6256;DHT22;3161;48.794;9.784;2022-12-18T06:28:57;-8.60;99.90
6256;DHT22;3161;48.794;9.784;2022-12-18T06:31:25;-8.60;99.90
6256;DHT22;3161;48.794;9.784;2022-12-18T06:33:53;-8.60;99.90
6256;DHT22;3161;48.794;9.784;2022-12-18T06:36:20;-8.60;99.90
6256;DHT22;3161;48.794;9.784;2022-12-18T06:38:48;-8.60;99.90
6256;DHT22;3161;48.794;9.784;2022-12-18T06:41:18;-8.70;99.90
6256;DHT22;3161;48.794;9.784;2022-12-18T06:43:47;-8.70;99.90
6256;DHT22;3161;48.794;9.784;2022-12-18T06:46:14;-8.70;99.90
6256;DHT22;3161;48.794;9.784;2022-12-18T06:48:42;-8.70;99.90
6256;DHT22;3161;48.794;9.784;2022-12-18T06:51:10;-8.70;99.90
6256;DHT22;3161;48.794;9.784;2022-12-18T06:53:37;-8.80;99.90
6256;DHT22;3161;48.794;9.784;2022-12-18T06:56:06;-8.80;99.90
6256;DHT22;3161;48.794;9.784;2022-12-18T06:58:34;-8.80;99.90
6256;DHT22;3161;48.794;9.784;2022-12-18T07:01:03;-8.80;99.90
6256;DHT22;3161;48.794;9.784;2022-12-18T07:03:32;-8.80;99.90
6256;DHT22;3161;48.794;9.784;2022-12-18T07:06:00;-8.70;99.90
6256;DHT22;3161;48.794;9.784;2022-12-18T07:08:29;-8.80;99.90
6256;DHT22;3161;48.794;9.784;2022-12-18T07:10:57;-8.80;99.90
6256;DHT22;3161;48.794;9.784;2022-12-18T07:13:25;-8.80;99.90
6256;DHT22;3161;48.794;9.784;2022-12-18T07:15:53;-8.80;99.90
6256;DHT22;3161;48.794;9.784;2022-12-18T07:18:20;-8.80;99.90
6256;DHT22;3161;48.794;9.784;2022-12-18T07:20:48;-8.80;99.90
6256;DHT22;3161;48.794;9.784;2022-12-18T07:23:15;-8.80;99.90
6256;DHT22;3161;48.794;9.784;2022-12-18T07:25:43;-8.70;99.90
6256;DHT22;3161;48.794;9.784;2022-12-18T07:28:10;-8.70;99.90
6256;DHT22;3161;48.794;9.784;2022-12-18T07:30:38;-8.70;99.90
6256;DHT22;3161;48.794;9.784;2022-12-18T07:33:06;-8.70;99.90
6256;DHT22;3161;48.794;9.784;2022-12-18T07:35:35;-8.60;99.90
6256;DHT22;3161;48.794;9.784;2022-12-18T07:38:03;-8.60;99.90
6256;DHT22;3161;48.794;9.784;2022-12-18T07:40:30;-8.60;99.90
6256;DHT22;3161;48.794;9.784;2022-12-18T07:42:58;-8.60;99.90
6256;DHT22;3161;48.794;9.784;2022-12-18T07:45:25;-8.50;99.90
6256;DHT22;3161;48.794;9.784;2022-12-18T07:47:53;-8.50;99.90
6256;DHT22;3161;48.794;9.784;2022-12-18T07:50:20;-8.50;99.90
6256;DHT22;3161;48.794;9.784;2022-12-18T07:52:48;-8.40;99.90
6256;DHT22;3161;48.794;9.784;2022-12-18T07:55:16;-8.40;99.90
6256;DHT22;3161;48.794;9.784;2022-12-18T07:57:43;-8.40;99.90
6256;DHT22;3161;48.794;9.784;2022-12-18T08:00:12;-8.30;99.90
6256;DHT22;3161;48.794;9.784;2022-12-18T08:02:40;-8.30;99.90
6256;DHT22;3161;48.794;9.784;2022-12-18T08:05:08;-8.20;99.90
6256;DHT22;3161;48.794;9.784;2022-12-18T08:07:36;-8.10;99.90
6256;DHT22;3161;48.794;9.784;2022-12-18T08:10:04;-8.10;99.90
6256;DHT22;3161;48.794;9.784;2022-12-18T08:12:32;-8.00;99.90
6256;DHT22;3161;48.794;9.784;2022-12-18T08:15:00;-8.00;99.90
6256;DHT22;3161;48.794;9.784;2022-12-18T08:17:27;-8.00;99.90
6256;DHT22;3161;48.794;9.784;2022-12-18T08:19:55;-7.90;99.90
6256;DHT22;3161;48.794;9.784;2022-12-18T08:22:22;-7.80;99.90
6256;DHT22;3161;48.794;9.784;2022-12-18T08:24:50;-7.80;99.90
6256;DHT22;3161;48.794;9.784;2022-12-18T08:27:18;-7.70;99.90
6256;DHT22;3161;48.794;9.784;2022-12-18T08:29:45;-7.70;99.90
6256;DHT22;3161;48.794;9.784;2022-12-18T08:32:13;-7.70;99.90
6256;DHT22;3161;48.794;9.784;2022-12-18T08:34:40;-7.60;99.90
6256;DHT22;3161;48.794;9.784;2022-12-18T08:37:08;-7.60;99.90
6256;DHT22;3161;48.794;9.784;2022-12-18T08:39:36;-7.50;99.90
6256;DHT22;3161;48.794;9.784;2022-12-18T08:42:03;-7.50;99.90
6256;DHT22;3161;48.794;9.784;2022-12-18T08:44:49;-7.40;99.90
6256;DHT22;3161;48.794;9.784;2022-12-18T08:47:16;-7.40;99.90
6256;DHT22;3161;48.794;9.784;2022-12-18T08:49:44;-7.30;99.90
6256;DHT22;3161;48.794;9.784;2022-12-18T08:52:14;-7.30;99.90
6256;DHT22;3161;48.794;9.784;2022-12-18T08:54:41;-7.20;99.90
6256;DHT22;3161;48.794;9.784;2022-12-18T08:57:09;-7.20;99.90
6256;DHT22;3161;48.794;9.784;2022-12-18T08:59:36;-7.20;99.90
6256;DHT22;3161;48.794;9.784;2022-12-18T09:02:04;-7.20;99.90
6256;DHT22;3161;48.794;9.784;2022-12-18T09:04:31;-7.20;99.90
6256;DHT22;3161;48.794;9.784;2022-12-18T09:06:59;-7.10;99.90
6256;DHT22;3161;48.794;9.784;2022-12-18T09:09:26;-7.00;99.90
6256;DHT22;3161;48.794;9.784;2022-12-18T09:11:54;-6.90;99.90
6256;DHT22;3161;48.794;9.784;2022-12-18T09:14:22;-6.80;99.90
6256;DHT22;3161;48.794;9.784;2022-12-18T09:16:49;-6.70;99.90
6256;DHT22;3161;48.794;9.784;2022-12-18T09:19:17;-6.50;99.90
6256;DHT22;3161;48.794;9.784;2022-12-18T09:21:44;-6.50;99.90
6256;DHT22;3161;48.794;9.784;2022-12-18T09:24:13;-6.30;99.90
6256;DHT22;3161;48.794;9.784;2022-12-18T09:26:41;-6.20;99.90
6256;DHT22;3161;48.794;9.784;2022-12-18T09:29:09;-6.10;99.90
6256;DHT22;3161;48.794;9.784;2022-12-18T09:31:36;-6.00;99.90
6256;DHT22;3161;48.794;9.784;2022-12-18T09:34:06;-5.90;99.90
6256;DHT22;3161;48.794;9.784;2022-12-18T09:36:34;-5.90;99.90
6256;DHT22;3161;48.794;9.784;2022-12-18T09:39:02;-5.70;99.90
6256;DHT22;3161;48.794;9.784;2022-12-18T09:44:13;-5.50;99.90
6256;DHT22;3161;48.794;9.784;2022-12-18T09:46:43;-5.40;99.90
6256;DHT22;3161;48.794;9.784;2022-12-18T09:49:16;-5.40;99.90
6256;DHT22;3161;48.794;9.784;2022-12-18T09:51:54;-5.30;99.90
6256;DHT22;3161;48.794;9.784;2022-12-18T09:54:23;-5.20;99.90
6256;DHT22;3161;48.794;9.784;2022-12-18T09:56:51;-5.10;99.90
6256;DHT22;3161;48.794;9.784;2022-12-18T09:59:29;-5.00;99.90
6256;DHT22;3161;48.794;9.784;2022-12-18T10:01:56;-4.90;99.90
6256;DHT22;3161;48.794;9.784;2022-12-18T10:04:24;-4.80;99.90
6256;DHT22;3161;48.794;9.784;2022-12-18T10:06:58;-4.70;99.90
6256;DHT22;3161;48.794;9.784;2022-12-18T10:09:32;-4.60;99.90
6256;DHT22;3161;48.794;9.784;2022-12-18T10:12:25;-4.40;99.90
6256;DHT22;3161;48.794;9.784;2022-12-18T10:15:25;-4.40;99.90
6256;DHT22;3161;48.794;9.784;2022-12-18T10:17:57;-4.30;99.90
6256;DHT22;3161;48.794;9.784;2022-12-18T10:20:30;-4.20;99.90
6256;DHT22;3161;48.794;9.784;2022-12-18T10:23:19;-4.10;99.90
6256;DHT22;3161;48.794;9.784;2022-12-18T10:26:06;-4.00;99.90
6256;DHT22;3161;48.794;9.784;2022-12-18T10:28:36;-3.90;99.90
6256;DHT22;3161;48.794;9.784;2022-12-18T10:31:06;-3.70;99.90
6256;DHT22;3161;48.794;9.784;2022-12-18T10:33:34;-3.60;99.90
6256;DHT22;3161;48.794;9.784;2022-12-18T10:36:02;-3.50;99.90
6256;DHT22;3161;48.794;9.784;2022-12-18T10:38:31;-3.30;99.90
6256;DHT22;3161;48.794;9.784;2022-12-18T10:41:02;-3.20;99.90
6256;DHT22;3161;48.794;9.784;2022-12-18T10:43:37;-3.00;99.90
6256;DHT22;3161;48.794;9.784;2022-12-18T10:54:06;-2.40;99.90
6256;DHT22;3161;48.794;9.784;2022-12-18T10:56:35;-2.20;99.90
6256;DHT22;3161;48.794;9.784;2022-12-18T10:59:06;-2.10;99.90
6256;DHT22;3161;48.794;9.784;2022-12-18T11:01:56;-1.90;99.90
6256;DHT22;3161;48.794;9.784;2022-12-18T11:04:29;-1.70;99.90
6256;DHT22;3161;48.794;9.784;2022-12-18T11:07:08;-1.40;99.90
6256;DHT22;3161;48.794;9.784;2022-12-18T11:09:39;-1.20;99.90
6256;DHT22;3161;48.794;9.784;2022-12-18T11:12:18;-0.90;99.90
6256;DHT22;3161;48.794;9.784;2022-12-18T11:14:49;-0.70;99.90
6256;DHT22;3161;48.794;9.784;2022-12-18T11:17:22;-0.50;99.90
6256;DHT22;3161;48.794;9.784;2022-12-18T11:19:57;-0.30;99.90
6256;DHT22;3161;48.794;9.784;2022-12-18T11:22:31;-0.10;99.90
6256;DHT22;3161;48.794;9.784;2022-12-18T11:25:04;0.20;99.90
6256;DHT22;3161;48.794;9.784;2022-12-18T11:27:33;0.40;99.90
6256;DHT22;3161;48.794;9.784;2022-12-18T11:32:55;0.70;99.90
6256;DHT22;3161;48.794;9.784;2022-12-18T11:35:42;0.90;99.90
6256;DHT22;3161;48.794;9.784;2022-12-18T11:40:49;1.10;99.90
6256;DHT22;3161;48.794;9.784;2022-12-18T11:45:55;1.30;99.90
6256;DHT22;3161;48.794;9.784;2022-12-18T11:48:26;1.40;99.90
6256;DHT22;3161;48.794;9.784;2022-12-18T11:50:56;1.50;99.90
6256;DHT22;3161;48.794;9.784;2022-12-18T11:53:25;1.70;99.90
6256;DHT22;3161;48.794;9.784;2022-12-18T11:59:04;2.00;99.90
6256;DHT22;3161;48.794;9.784;2022-12-18T12:01:44;2.30;99.90
6256;DHT22;3161;48.794;9.784;2022-12-18T12:07:09;2.80;99.90
6256;DHT22;3161;48.794;9.784;2022-12-18T12:09:54;3.10;99.90
6256;DHT22;3161;48.794;9.784;2022-12-18T12:15:13;3.50;99.90
6256;DHT22;3161;48.794;9.784;2022-12-18T12:26:16;4.70;99.90
6256;DHT22;3161;48.794;9.784;2022-12-18T12:31:47;5.30;99.90
6256;DHT22;3161;48.794;9.784;2022-12-18T12:34:20;5.60;99.90
6256;DHT22;3161;48.794;9.784;2022-12-18T12:39:48;6.00;99.90
6256;DHT22;3161;48.794;9.784;2022-12-18T12:42:25;5.90;99.90
6256;DHT22;3161;48.794;9.784;2022-12-18T12:45:13;5.70;99.90
6256;DHT22;3161;48.794;9.784;2022-12-18T12:47:39;5.60;99.90
6256;DHT22;3161;48.794;9.784;2022-12-18T12:50:17;5.50;99.90
6256;DHT22;3161;48.794;9.784;2022-12-18T12:52:47;5.40;99.90
6256;DHT22;3161;48.794;9.784;2022-12-18T12:55:21;5.40;99.90
6256;DHT22;3161;48.794;9.784;2022-12-18T12:58:08;5.40;99.80
6256;DHT22;3161;48.794;9.784;2022-12-18T13:00:39;5.30;99.90
6256;DHT22;3161;48.794;9.784;2022-12-18T13:03:27;5.40;99.80
6256;DHT22;3161;48.794;9.784;2022-12-18T13:05:58;5.40;99.80
6256;DHT22;3161;48.794;9.784;2022-12-18T13:08:26;5.50;99.60
6256;DHT22;3161;48.794;9.784;2022-12-18T13:10:55;5.60;98.80
6256;DHT22;3161;48.794;9.784;2022-12-18T13:13:53;5.60;99.00
6256;DHT22;3161;48.794;9.784;2022-12-18T13:16:23;5.60;98.70
6256;DHT22;3161;48.794;9.784;2022-12-18T13:18:53;5.50;99.10
6256;DHT22;3161;48.794;9.784;2022-12-18T13:21:31;5.40;98.80
6256;DHT22;3161;48.794;9.784;2022-12-18T13:24:23;5.40;98.70
6256;DHT22;3161;48.794;9.784;2022-12-18T13:26:45;5.30;98.90
6256;DHT22;3161;48.794;9.784;2022-12-18T13:29:34;5.20;99.00
6256;DHT22;3161;48.794;9.784;2022-12-18T13:34:28;5.00;98.80
6256;DHT22;3161;48.794;9.784;2022-12-18T13:36:54;4.90;98.80
6256;DHT22;3161;48.794;9.784;2022-12-18T13:39:33;4.80;99.60
6256;DHT22;3161;48.794;9.784;2022-12-18T13:44:40;4.60;99.90
6256;DHT22;3161;48.794;9.784;2022-12-18T13:47:45;4.50;99.90
6256;DHT22;3161;48.794;9.784;2022-12-18T13:50:00;4.40;99.90
6256;DHT22;3161;48.794;9.784;2022-12-18T13:52:33;4.20;99.90
6256;DHT22;3161;48.794;9.784;2022-12-18T13:55:21;4.00;99.90
6256;DHT22;3161;48.794;9.784;2022-12-18T13:57:49;3.80;99.90
6256;DHT22;3161;48.794;9.784;2022-12-18T14:00:25;3.60;99.90
6256;DHT22;3161;48.794;9.784;2022-12-18T14:02:55;3.30;99.90
6256;DHT22;3161;48.794;9.784;2022-12-18T14:05:31;3.10;99.90
6256;DHT22;3161;48.794;9.784;2022-12-18T14:08:13;2.90;99.90
6256;DHT22;3161;48.794;9.784;2022-12-18T14:10:44;2.70;99.90
6256;DHT22;3161;48.794;9.784;2022-12-18T14:13:30;2.60;99.90
6256;DHT22;3161;48.794;9.784;2022-12-18T14:15:58;2.40;99.90
6256;DHT22;3161;48.794;9.784;2022-12-18T14:18:45;2.20;99.90
6256;DHT22;3161;48.794;9.784;2022-12-18T14:21:21;2.10;99.90
6256;DHT22;3161;48.794;9.784;2022-12-18T14:24:12;1.90;99.90
6256;DHT22;3161;48.794;9.784;2022-12-18T14:26:35;1.80;99.90
6256;DHT22;3161;48.794;9.784;2022-12-18T14:29:22;1.70;99.90
6256;DHT22;3161;48.794;9.784;2022-12-18T14:32:12;1.60;99.90
6256;DHT22;3161;48.794;9.784;2022-12-18T14:34:47;1.50;99.90
6256;DHT22;3161;48.794;9.784;2022-12-18T14:37:13;1.30;99.90
6256;DHT22;3161;48.794;9.784;2022-12-18T14:39:56;1.20;99.90
6256;DHT22;3161;48.794;9.784;2022-12-18T14:42:21;1.10;99.90
6256;DHT22;3161;48.794;9.784;2022-12-18T14:44:48;0.90;99.90
6256;DHT22;3161;48.794;9.784;2022-12-18T14:50:11;0.70;99.90
6256;DHT22;3161;48.794;9.784;2022-12-18T14:52:35;0.50;99.90
6256;DHT22;3161;48.794;9.784;2022-12-18T14:55:04;0.40;99.90
6256;DHT22;3161;48.794;9.784;2022-12-18T14:57:36;0.30;99.90
6256;DHT22;3161;48.794;9.784;2022-12-18T15:00:06;0.20;99.90
6256;DHT22;3161;48.794;9.784;2022-12-18T15:02:35;0.10;99.90
6256;DHT22;3161;48.794;9.784;2022-12-18T15:05:19;0.00;99.90
6256;DHT22;3161;48.794;9.784;2022-12-18T15:07:49;-0.10;99.90
6256;DHT22;3161;48.794;9.784;2022-12-18T15:10:25;-0.20;99.90
6256;DHT22;3161;48.794;9.784;2022-12-18T15:20:51;-0.70;99.90
6256;DHT22;3161;48.794;9.784;2022-12-18T15:23:28;-0.80;99.90
6256;DHT22;3161;48.794;9.784;2022-12-18T15:26:01;-1.00;99.90
6256;DHT22;3161;48.794;9.784;2022-12-18T15:28:43;-1.10;99.90
6256;DHT22;3161;48.794;9.784;2022-12-18T15:34:10;-1.40;99.90
6256;DHT22;3161;48.794;9.784;2022-12-18T15:36:15;-1.50;99.90
6256;DHT22;3161;48.794;9.784;2022-12-18T15:38:54;-1.50;99.90
6256;DHT22;3161;48.794;9.784;2022-12-18T15:41:22;-1.60;99.90
6256;DHT22;3161;48.794;9.784;2022-12-18T15:43:51;-1.70;99.90
6256;DHT22;3161;48.794;9.784;2022-12-18T15:46:24;-1.80;99.90
6256;DHT22;3161;48.794;9.784;2022-12-18T15:48:57;-1.90;99.90
6256;DHT22;3161;48.794;9.784;2022-12-18T15:51:27;-1.90;99.90
6256;DHT22;3161;48.794;9.784;2022-12-18T15:53:56;-2.00;99.90
6256;DHT22;3161;48.794;9.784;2022-12-18T15:56:25;-2.00;99.90
6256;DHT22;3161;48.794;9.784;2022-12-18T15:59:14;-2.10;99.90
6256;DHT22;3161;48.794;9.784;2022-12-18T16:01:45;-2.10;99.90
6256;DHT22;3161;48.794;9.784;2022-12-18T16:04:14;-2.10;99.90
6256;DHT22;3161;48.794;9.784;2022-12-18T16:06:43;-2.20;99.90
6256;DHT22;3161;48.794;9.784;2022-12-18T16:09:10;-2.20;99.90
6256;DHT22;3161;48.794;9.784;2022-12-18T16:11:41;-2.20;99.90
6256;DHT22;3161;48.794;9.784;2022-12-18T16:14:23;-2.30;99.90
6256;DHT22;3161;48.794;9.784;2022-12-18T16:17:00;-2.30;99.90
6256;DHT22;3161;48.794;9.784;2022-12-18T16:19:29;-2.40;99.90
6256;DHT22;3161;48.794;9.784;2022-12-18T16:21:58;-2.50;99.90
6256;DHT22;3161;48.794;9.784;2022-12-18T16:24:28;-2.50;99.90
6256;DHT22;3161;48.794;9.784;2022-12-18T16:26:58;-2.40;99.90
6256;DHT22;3161;48.794;9.784;2022-12-18T16:29:27;-2.50;99.90
6256;DHT22;3161;48.794;9.784;2022-12-18T16:31:57;-2.50;99.90
6256;DHT22;3161;48.794;9.784;2022-12-18T16:34:27;-2.60;99.90
6256;DHT22;3161;48.794;9.784;2022-12-18T16:36:56;-2.60;99.90
6256;DHT22;3161;48.794;9.784;2022-12-18T16:39:35;-2.70;99.90
6256;DHT22;3161;48.794;9.784;2022-12-18T16:42:13;-2.80;99.90
6256;DHT22;3161;48.794;9.784;2022-12-18T16:44:38;-2.80;99.90
6256;DHT22;3161;48.794;9.784;2022-12-18T16:47:06;-2.80;99.90
6256;DHT22;3161;48.794;9.784;2022-12-18T16:49:34;-2.90;99.90
6256;DHT22;3161;48.794;9.784;2022-12-18T16:52:02;-2.90;99.90
6256;DHT22;3161;48.794;9.784;2022-12-18T16:54:29;-2.90;99.90
6256;DHT22;3161;48.794;9.784;2022-12-18T16:56:59;-2.90;99.90
6256;DHT22;3161;48.794;9.784;2022-12-18T16:59:26;-2.90;99.90
6256;DHT22;3161;48.794;9.784;2022-12-18T17:01:56;-3.00;99.90
6256;DHT22;3161;48.794;9.784;2022-12-18T17:04:23;-3.00;99.90
6256;DHT22;3161;48.794;9.784;2022-12-18T17:06:51;-3.00;99.90
6256;DHT22;3161;48.794;9.784;2022-12-18T17:09:20;-3.00;99.90
6256;DHT22;3161;48.794;9.784;2022-12-18T17:11:52;-3.00;99.90
6256;DHT22;3161;48.794;9.784;2022-12-18T17:14:22;-3.00;99.90
6256;DHT22;3161;48.794;9.784;2022-12-18T17:16:50;-3.10;99.90
6256;DHT22;3161;48.794;9.784;2022-12-18T17:19:19;-3.00;99.90
6256;DHT22;3161;48.794;9.784;2022-12-18T17:21:50;-3.00;99.90
6256;DHT22;3161;48.794;9.784;2022-12-18T17:24:18;-3.00;99.90
6256;DHT22;3161;48.794;9.784;2022-12-18T17:26:46;-3.00;99.90
6256;DHT22;3161;48.794;9.784;2022-12-18T17:29:16;-3.00;99.90
6256;DHT22;3161;48.794;9.784;2022-12-18T17:31:45;-3.00;99.90
6256;DHT22;3161;48.794;9.784;2022-12-18T17:34:13;-2.90;99.90
6256;DHT22;3161;48.794;9.784;2022-12-18T17:36:41;-2.90;99.90
6256;DHT22;3161;48.794;9.784;2022-12-18T17:39:15;-2.90;99.90